Time;durP1;ratioP1;P1;durP2;ratioP2;P2;SDS_P1;SDS_P2;PMS_P1;PMS_P2;Temp;Humidity;BMP_temperature;BMP_pressure;BME280_temperature;BME280_humidity;BME280_pressure;Samples;Min_cycle;Max_cycle;Signal;HPM_P1;HPM_P2
2022/01/26 00:06:47;;;;;;;8.40;4.88;;;;;;;3.42;46.58;99332.06;3353774;29;20083;-71
2022/01/26 00:08:27;;;;;;;5.97;4.03;;;;;;;3.44;46.54;99337.19;3364691;29;20418;-70
2022/01/26 00:10:08;;;;;;;7.95;4.80;;;;;;;3.45;46.60;99336.19;3364771;29;20172;-71
2022/01/26 00:11:49;;;;;;;9.18;4.65;;;;;;;3.46;46.35;99336.03;3364573;29;20088;-71
2022/01/26 00:13:30;;;;;;;8.98;4.43;;;;;;;3.48;46.71;99341.13;3364243;29;20075;-70
2022/01/26 00:15:13;;;;;;;7.05;4.38;;;;;;;3.50;46.35;99339.16;3364134;29;20076;-72
2022/01/26 00:16:54;;;;;;;7.65;4.22;;;;;;;3.48;46.42;99339.34;3364829;29;20045;-72
2022/01/26 00:18:37;;;;;;;10.43;6.18;;;;;;;3.48;46.62;99339.34;3364359;29;20140;-71
2022/01/26 00:21:58;;;;;;;8.23;4.80;;;;;;;3.47;46.62;99331.59;3365033;29;20508;-72
2022/01/26 00:25:46;;;;;;;8.77;4.60;;;;;;;3.50;46.28;99332.09;3368807;29;20077;-71
2022/01/26 00:27:43;;;;;;;9.32;4.75;;;;;;;3.48;46.44;99334.06;3376886;29;20061;-69
2022/01/26 00:29:47;;;;;;;6.28;3.90;;;;;;;3.46;46.57;99333.41;3377647;29;20534;-69
2022/01/26 00:39:35;;;;;;;15.38;6.22;;;;;;;3.41;46.43;99333.06;3365403;29;20045;-73
2022/01/26 00:41:32;;;;;;;9.88;4.90;;;;;;;3.38;46.51;99337.78;3363787;29;20080;-70
2022/01/26 00:43:19;;;;;;;10.50;6.03;;;;;;;3.35;46.48;99335.47;3364574;29;20045;-72
2022/01/26 00:44:59;;;;;;;11.02;5.25;;;;;;;3.32;46.54;99339.25;3364887;29;20049;-72
2022/01/26 00:46:47;;;;;;;10.95;6.45;;;;;;;3.30;46.57;99341.19;3363587;29;20585;-71
2022/01/26 00:48:31;;;;;;;8.18;5.45;;;;;;;3.27;46.80;99346.78;3374389;29;20131;-72
2022/01/26 00:50:12;;;;;;;10.35;5.28;;;;;;;3.27;46.54;99352.88;3365307;29;20036;-71
2022/01/26 00:51:54;;;;;;;10.77;4.90;;;;;;;3.26;46.68;99345.16;3364374;29;20052;-73
2022/01/26 00:53:40;;;;;;;10.65;5.38;;;;;;;3.28;46.58;99343.19;3364150;29;20053;-69
2022/01/26 00:55:21;;;;;;;8.77;5.13;;;;;;;3.29;46.41;99336.94;3364541;29;20053;-71
2022/01/26 00:57:02;;;;;;;10.20;5.90;;;;;;;3.32;46.55;99347.16;3364589;29;20056;-70
2022/01/26 00:58:43;;;;;;;9.57;5.25;;;;;;;3.34;46.42;99339.91;3364078;29;20084;-70
2022/01/26 01:00:26;;;;;;;7.22;4.32;;;;;;;3.35;46.35;99333.66;3364643;29;20524;-70
2022/01/26 01:02:06;;;;;;;8.43;4.65;;;;;;;3.38;46.46;99329.88;3363989;29;20040;-69
2022/01/26 01:03:48;;;;;;;11.48;5.78;;;;;;;3.41;46.42;99330.41;3363731;29;20041;-72
2022/01/26 01:05:38;;;;;;;8.55;5.13;;;;;;;3.43;46.43;99331.09;3364407;29;20048;-70
2022/01/26 01:07:22;;;;;;;10.02;5.85;;;;;;;3.46;46.40;99336.03;3364058;29;20049;-71
2022/01/26 01:09:03;;;;;;;19.23;11.50;;;;;;;3.45;46.61;99326.47;3364134;29;20402;-71
2022/01/26 01:10:46;;;;;;;21.10;12.47;;;;;;;3.45;46.83;99331.72;3363472;29;20056;-73
2022/01/26 01:12:27;;;;;;;15.95;9.90;;;;;;;3.43;46.64;99336.34;3364411;29;20116;-69
2022/01/26 01:14:09;;;;;;;17.48;9.73;;;;;;;3.43;46.73;99333.72;3364316;29;20045;-70
2022/01/26 01:15:51;;;;;;;14.52;9.25;;;;;;;3.43;46.45;99338.13;3364265;29;20108;-72
2022/01/26 01:17:38;;;;;;;;;;;;;;;3.54;46.44;99331.75;3364711;29;20047;-70
2022/01/26 01:19:39;;;;;;;8.77;5.55;;;;;;;3.46;46.51;99333.41;3364287;29;19924;-73
2022/01/26 01:28:30;;;;;;;10.48;5.90;;;;;;;3.34;46.77;99337.28;3364101;29;20132;-71
2022/01/26 01:32:01;;;;;;;8.27;5.32;;;;;;;3.39;46.61;99329.75;3364093;29;20406;-72
2022/01/26 01:33:46;;;;;;;9.38;5.93;;;;;;;3.37;46.63;99333.50;3364298;29;20045;-71
2022/01/26 01:35:27;;;;;;;8.57;5.10;;;;;;;3.35;46.81;99331.03;3364141;29;20037;-72
2022/01/26 01:37:13;;;;;;;10.43;5.75;;;;;;;3.33;46.66;99335.66;3363568;29;20049;-71
2022/01/26 01:38:55;;;;;;;10.15;6.43;;;;;;;3.32;46.88;99328.72;3364228;29;20390;-71
2022/01/26 01:40:37;;;;;;;8.55;6.40;;;;;;;3.31;46.96;99327.06;3364506;29;20049;-73
2022/01/26 01:42:18;;;;;;;9.43;5.20;;;;;;;3.30;46.76;99330.66;3362810;29;20045;-71
2022/01/26 01:43:58;;;;;;;9.80;5.45;;;;;;;3.30;46.71;99338.56;3364312;29;20112;-72
2022/01/26 01:45:43;;;;;;;8.98;5.65;;;;;;;3.29;46.71;99334.28;3365559;29;20052;-71
2022/01/26 01:47:24;;;;;;;10.68;5.80;;;;;;;3.29;46.86;99339.56;3363888;29;20131;-72
2022/01/26 01:49:06;;;;;;;10.77;5.15;;;;;;;3.31;46.83;99336.78;3364292;29;20465;-71
2022/01/26 01:50:49;;;;;;;9.57;5.55;;;;;;;3.31;46.77;99337.59;3363701;29;20100;-70
2022/01/26 01:52:30;;;;;;;8.93;5.35;;;;;;;3.31;46.92;99342.06;3363808;29;20053;-69
2022/01/26 01:54:15;;;;;;;13.30;6.18;;;;;;;3.30;46.87;99338.56;3367667;29;20085;-71
2022/01/26 01:55:56;;;;;;;10.60;5.93;;;;;;;3.27;46.81;99336.25;3368223;29;20044;-71
2022/01/26 01:57:37;;;;;;;6.78;4.20;;;;;;;3.27;46.90;99341.53;3367847;29;20045;-71
2022/01/26 01:59:18;;;;;;;13.80;6.72;;;;;;;3.26;46.69;99339.88;3363599;29;20051;-71
2022/01/26 02:00:58;;;;;;;8.32;5.13;;;;;;;3.25;47.01;99338.22;3363309;29;20053;-71
2022/01/26 02:02:39;;;;;;;10.82;5.22;;;;;;;3.22;46.58;99334.09;3363212;29;20553;-70
2022/01/26 02:04:20;;;;;;;9.73;6.03;;;;;;;3.21;46.85;99342.97;3363409;29;20087;-71
2022/01/26 02:06:01;;;;;;;10.43;5.90;;;;;;;3.19;46.82;99333.56;3363350;29;20119;-70
2022/01/26 02:07:42;;;;;;;8.82;5.18;;;;;;;3.17;46.78;99340.81;3363251;29;20052;-71
2022/01/26 02:09:22;;;;;;;11.43;6.80;;;;;;;3.16;46.79;99334.72;3363372;29;20101;-70
2022/01/26 02:11:06;;;;;;;9.98;5.20;;;;;;;3.18;46.66;99339.84;3371044;29;20132;-71
2022/01/26 02:12:50;;;;;;;9.82;6.45;;;;;;;3.20;46.53;99335.22;3360303;29;20470;-73
2022/01/26 02:14:36;;;;;;;13.23;6.30;;;;;;;3.21;46.69;99336.88;3364219;29;20049;-71
2022/01/26 02:16:34;;;;;;;9.85;5.60;;;;;;;3.21;46.88;99336.88;3364387;29;20049;-71
2022/01/26 02:21:03;;;;;;;10.82;6.07;;;;;;;3.22;46.80;99336.72;3364951;29;20044;-71
2022/01/26 02:50:53;;;;;;;10.07;6.32;;;;;;;3.33;46.60;99356.72;3363466;29;20072;-71
2022/01/26 02:54:43;;;;;;;13.57;7.30;;;;;;;3.26;46.85;99351.22;3360373;29;20496;-71
2022/01/26 02:56:25;;;;;;;9.02;5.43;;;;;;;3.24;47.01;99347.09;3363077;29;20152;-72
2022/01/26 03:00:16;;;;;;;11.48;5.85;;;;;;;3.27;46.82;99355.50;3363444;29;20073;-70
2022/01/26 03:02:07;;;;;;;12.15;5.25;;;;;;;3.30;47.02;99348.28;3363087;29;20120;-70
2022/01/26 03:04:02;;;;;;;10.55;5.55;;;;;;;3.32;46.95;99344.50;3363621;29;20496;-71
2022/01/26 03:05:53;;;;;;;9.15;5.90;;;;;;;3.31;46.74;99348.13;3363941;29;20076;-73
2022/01/26 03:07:49;;;;;;;12.00;6.45;;;;;;;3.34;46.89;99352.28;3363779;29;20433;-72
2022/01/26 03:09:36;;;;;;;13.10;6.22;;;;;;;3.34;46.87;99347.81;3362796;29;20401;-73
2022/01/26 03:11:18;;;;;;;11.00;6.70;;;;;;;3.35;46.84;99349.47;3363969;29;20097;-70
2022/01/26 03:13:05;;;;;;;12.20;7.80;;;;;;;3.36;46.66;99345.88;3370447;29;20071;-72
2022/01/26 03:14:52;;;;;;;10.75;6.45;;;;;;;3.37;46.85;99347.50;3363665;29;20406;-72
2022/01/26 03:16:39;;;;;;;10.88;6.30;;;;;;;3.38;46.80;99346.53;3363615;29;20052;-73
2022/01/26 03:20:10;;;;;;;13.30;6.53;;;;;;;3.39;46.96;99348.19;3363473;29;20055;-71
2022/01/26 03:28:16;;;;;;;12.57;6.63;;;;;;;3.36;47.21;99352.94;3364777;29;20052;-72
2022/01/26 03:30:20;;;;;;;10.57;7.00;;;;;;;3.34;47.22;99347.81;3353574;29;20053;-74
2022/01/26 03:34:13;;;;;;;11.32;5.88;;;;;;;3.31;47.39;99353.41;3363453;29;20045;-71
2022/01/26 03:35:56;;;;;;;;;;;;;;;3.40;47.22;99355.09;3365160;29;20052;-71
2022/01/26 03:37:39;;;;;;;12.25;6.00;;;;;;;3.34;47.32;99361.00;3364162;29;19936;-71
2022/01/26 03:39:22;;;;;;;9.32;5.80;;;;;;;3.34;47.23;99354.91;3352140;29;20070;-75
2022/01/26 03:41:34;;;;;;;14.02;6.68;;;;;;;3.32;47.48;99360.31;3352329;29;20524;-73
2022/01/26 03:43:14;;;;;;;13.75;6.63;;;;;;;3.35;47.27;99360.00;3358387;29;20048;-72
2022/01/26 03:44:55;;;;;;;15.52;7.40;;;;;;;3.37;47.40;99359.84;3365987;29;20041;-72
2022/01/26 03:46:36;;;;;;;11.90;8.18;;;;;;;3.37;47.59;99360.66;3364416;29;20080;-73
2022/01/26 03:48:17;;;;;;;13.20;6.87;;;;;;;3.37;47.63;99360.66;3360116;29;20041;-71
2022/01/26 03:49:58;;;;;;;15.90;7.30;;;;;;;3.36;47.46;99351.13;3363046;29;20072;-73
2022/01/26 03:51:40;;;;;;;12.82;7.72;;;;;;;3.36;47.61;99356.41;3364251;29;20080;-72
2022/01/26 03:53:21;;;;;;;12.48;7.88;;;;;;;3.37;47.63;99351.94;3364195;29;20068;-72
2022/01/26 03:55:02;;;;;;;11.10;6.68;;;;;;;3.39;47.43;99350.81;3364778;29;20041;-73
2022/01/26 03:56:43;;;;;;;;;;;;;;;3.51;47.35;99351.34;3364953;29;20496;-71
2022/01/26 03:58:24;;;;;;;12.70;6.80;;;;;;;3.46;47.16;99361.56;3359679;29;19971;-75
2022/01/26 04:00:07;;;;;;;13.40;7.65;;;;;;;3.47;47.17;99353.47;3350946;29;20041;-72
2022/01/26 04:01:53;;;;;;;15.05;7.45;;;;;;;3.48;47.32;99355.16;3350072;29;20053;-70
2022/01/26 04:03:33;;;;;;;15.30;7.45;;;;;;;3.48;47.17;99352.53;3350096;29;20065;-72
2022/01/26 04:05:14;;;;;;;11.93;7.60;;;;;;;3.47;47.31;99364.03;3349746;29;20048;-70
2022/01/26 04:06:55;;;;;;;12.98;6.45;;;;;;;3.49;47.22;99355.97;3356827;29;20049;-72
2022/01/26 04:08:38;;;;;;;17.65;8.55;;;;;;;3.48;47.42;99357.78;3353502;29;20047;-71
2022/01/26 04:10:32;;;;;;;14.25;7.60;;;;;;;3.49;47.59;99355.97;3362385;29;20041;-70
2022/01/26 04:12:13;;;;;;;17.88;7.78;;;;;;;3.49;47.71;99351.53;3362745;29;20527;-72
2022/01/26 04:13:54;;;;;;;15.85;6.97;;;;;;;3.50;47.54;99354.97;3363358;29;20044;-72
2022/01/26 04:15:35;;;;;;;14.45;8.18;;;;;;;3.52;47.70;99357.47;3362665;29;20053;-71
2022/01/26 04:17:16;;;;;;;14.52;8.05;;;;;;;3.49;47.92;99356.78;3362871;29;20056;-70
2022/01/26 04:18:57;;;;;;;12.27;7.40;;;;;;;3.49;47.83;99356.78;3360813;29;20412;-71
2022/01/26 04:20:42;;;;;;;14.15;7.55;;;;;;;3.49;47.94;99362.06;3361920;29;20076;-71
2022/01/26 04:22:31;;;;;;;18.38;8.48;;;;;;;3.49;47.77;99356.78;3364813;29;20460;-71
2022/01/26 04:24:28;;;;;;;15.20;7.85;;;;;;;3.49;47.92;99356.78;3355963;29;20052;-72
2022/01/26 04:26:11;;;;;;;16.35;7.95;;;;;;;3.48;47.97;99355.16;3354620;29;20041;-71
2022/01/26 04:27:55;;;;;;;19.30;7.15;;;;;;;3.46;48.13;99351.03;3355323;29;20052;-72
2022/01/26 04:29:35;;;;;;;17.20;8.70;;;;;;;3.46;48.21;99351.03;3364578;29;20595;-71
2022/01/26 04:31:19;;;;;;;15.27;8.20;;;;;;;3.44;48.27;99356.44;3363302;29;20186;-72
2022/01/26 04:33:03;;;;;;;19.75;8.63;;;;;;;3.43;48.44;99357.44;3363934;29;20045;-71
2022/01/26 04:34:47;;;;;;;14.82;7.90;;;;;;;3.40;48.59;99357.72;3362298;29;20100;-71
2022/01/26 04:36:34;;;;;;;19.63;8.43;;;;;;;3.39;48.53;99366.63;3365006;29;20040;-72
2022/01/26 04:38:24;;;;;;;17.27;8.40;;;;;;;3.37;48.33;99365.13;3362975;29;20139;-72
2022/01/26 04:40:09;;;;;;;16.02;9.38;;;;;;;3.36;48.54;99364.31;3376488;29;20044;-71
2022/01/26 04:42:01;;;;;;;16.23;8.40;;;;;;;3.35;48.48;99367.06;3365985;29;20510;-71
2022/01/26 04:43:44;;;;;;;19.42;10.07;;;;;;;3.34;48.50;99368.06;3364530;29;20114;-69
2022/01/26 04:45:25;;;;;;;17.00;8.85;;;;;;;3.35;48.47;99359.19;3364780;29;20056;-70
2022/01/26 04:47:06;;;;;;;16.08;8.68;;;;;;;3.35;48.82;99365.25;3364590;29;20404;-71
2022/01/26 04:48:46;;;;;;;16.50;9.25;;;;;;;3.36;48.75;99366.94;3363298;29;20095;-70
2022/01/26 04:50:27;;;;;;;18.58;10.40;;;;;;;3.36;48.81;99369.56;3364897;29;20049;-71
2022/01/26 04:52:08;;;;;;;17.70;9.05;;;;;;;3.37;49.05;99368.56;3363503;29;20068;-70
2022/01/26 04:53:49;;;;;;;21.67;10.90;;;;;;;3.38;49.10;99369.41;3357347;29;20052;-71
2022/01/26 04:55:29;;;;;;;16.52;9.27;;;;;;;3.41;49.10;99367.28;3351444;29;20048;-69
2022/01/26 04:57:10;;;;;;;17.10;9.05;;;;;;;3.42;49.00;99361.03;3351854;29;20055;-70
2022/01/26 04:58:51;;;;;;;17.55;9.27;;;;;;;3.45;49.02;99371.25;3361587;29;20420;-70
2022/01/26 05:00:31;;;;;;;16.05;8.73;;;;;;;3.47;49.17;99369.28;3364180;29;20360;-71
2022/01/26 05:02:12;;;;;;;13.27;8.20;;;;;;;3.49;48.92;99371.78;3364037;29;20082;-71
2022/01/26 05:03:53;;;;;;;17.10;8.40;;;;;;;3.52;48.87;99360.09;3364157;29;20056;-71
2022/01/26 05:05:33;;;;;;;18.88;8.48;;;;;;;3.54;49.09;99355.47;3364200;29;20052;-70
2022/01/26 05:07:14;;;;;;;15.50;8.50;;;;;;;3.55;48.76;99360.59;3364149;29;20041;-70
2022/01/26 05:08:55;;;;;;;15.65;7.90;;;;;;;3.56;49.20;99356.97;3362024;29;20148;-70
2022/01/26 05:10:38;;;;;;;20.75;10.63;;;;;;;3.58;49.46;99356.81;3363731;29;20044;-70
2022/01/26 05:12:19;;;;;;;15.60;8.38;;;;;;;3.59;49.30;99354.03;3363442;29;20424;-69
2022/01/26 05:14:00;;;;;;;20.08;9.05;;;;;;;3.61;49.25;99354.69;3363788;29;20053;-69
2022/01/26 05:15:41;;;;;;;20.70;9.93;;;;;;;3.63;49.33;99362.44;3361193;29;20516;-70
2022/01/26 05:17:23;;;;;;;16.83;9.15;;;;;;;3.65;49.31;99355.22;3358600;29;20131;-69
2022/01/26 05:19:05;;;;;;;19.15;10.45;;;;;;;3.67;49.30;99354.06;3355234;29;20062;-66
2022/01/26 05:20:46;;;;;;;17.70;9.25;;;;;;;3.69;49.39;99356.53;3350478;29;20462;-69
2022/01/26 05:22:28;;;;;;;16.85;9.05;;;;;;;3.68;49.55;99360.16;3350189;29;20085;-71
2022/01/26 05:24:10;;;;;;;18.75;10.27;;;;;;;3.70;49.65;99359.03;3350941;29;20431;-72
2022/01/26 05:25:51;;;;;;;23.27;10.15;;;;;;;3.71;49.58;99365.94;3362438;29;20073;-73
2022/01/26 05:27:34;;;;;;;21.20;9.65;;;;;;;3.72;49.74;99351.78;3354054;29;20041;-73
2022/01/26 05:29:15;;;;;;;18.13;10.25;;;;;;;3.70;49.48;99358.19;3368235;29;20142;-74
2022/01/26 05:30:55;;;;;;;20.48;11.13;;;;;;;3.72;49.41;99361.50;3360098;29;20049;-71
2022/01/26 05:32:36;;;;;;;14.27;8.90;;;;;;;3.71;49.58;99357.22;3352010;29;20045;-72
2022/01/26 05:34:17;;;;;;;19.30;9.05;;;;;;;3.71;49.83;99358.03;3352831;29;20339;-73
2022/01/26 05:35:58;;;;;;;19.55;10.32;;;;;;;3.71;49.59;99357.22;3365883;29;20078;-71
2022/01/26 05:37:39;;;;;;;18.02;10.82;;;;;;;3.70;49.70;99363.47;3365866;29;20501;-73
2022/01/26 05:39:20;;;;;;;22.25;11.43;;;;;;;3.70;49.78;99359.03;3361014;29;20188;-74
2022/01/26 05:41:02;;;;;;;19.23;10.70;;;;;;;3.69;49.88;99362.66;3351932;29;20069;-73
2022/01/26 05:42:43;;;;;;;18.00;8.93;;;;;;;3.71;49.81;99355.41;3358445;29;20081;-73
2022/01/26 05:44:23;;;;;;;19.40;10.25;;;;;;;3.71;50.00;99367.75;3354700;29;20494;-73
2022/01/26 05:46:21;;;;;;;18.23;10.38;;;;;;;3.70;50.19;99358.19;3361086;29;20045;-73
2022/01/26 05:48:06;;;;;;;25.05;10.73;;;;;;;3.71;50.03;99360.66;3351632;29;20525;-72
2022/01/26 05:49:47;;;;;;;18.65;11.23;;;;;;;3.69;49.96;99357.38;3362661;29;20040;-74
2022/01/26 05:51:31;;;;;;;19.52;12.07;;;;;;;3.69;49.98;99361.81;3355345;29;20524;-71
2022/01/26 05:53:17;;;;;;;24.33;11.52;;;;;;;3.70;50.22;99366.94;3354540;29;20061;-70
2022/01/26 05:54:58;;;;;;;22.33;11.45;;;;;;;3.72;50.28;99366.78;3359924;29;20045;-70
2022/01/26 05:56:41;;;;;;;24.05;11.68;;;;;;;3.76;50.18;99367.28;3362473;29;20044;-71
2022/01/26 05:58:22;;;;;;;26.55;11.50;;;;;;;3.79;50.34;99366.97;3361672;29;20056;-71
2022/01/26 06:00:04;;;;;;;23.75;10.90;;;;;;;3.80;50.62;99360.72;3371766;29;20587;-71
2022/01/26 06:01:57;;;;;;;27.48;11.27;;;;;;;3.81;50.21;99370.25;3370097;29;20413;-70
2022/01/26 06:03:37;;;;;;;22.63;11.63;;;;;;;3.82;50.40;99367.47;3367576;29;20117;-69
2022/01/26 06:05:18;;;;;;;27.25;11.70;;;;;;;3.82;50.42;99364.84;3374869;29;20293;-70
2022/01/26 06:07:01;;;;;;;25.65;11.30;;;;;;;3.79;50.57;99365.13;3375051;29;20049;-70
2022/01/26 06:08:42;;;;;;;23.20;11.73;;;;;;;3.82;50.47;99367.47;3386775;29;20106;-71
2022/01/26 06:10:23;;;;;;;22.45;10.55;;;;;;;3.82;50.31;99358.72;3377071;29;20036;-70
2022/01/26 06:12:04;;;;;;;22.15;10.57;;;;;;;3.83;50.43;99368.31;3374671;29;20041;-71
2022/01/26 06:13:45;;;;;;;20.17;10.10;;;;;;;3.83;50.47;99363.84;3375262;29;20067;-69
2022/01/26 06:15:28;;;;;;;18.88;10.60;;;;;;;3.84;50.63;99364.66;3372480;29;20041;-70
2022/01/26 06:17:09;;;;;;;19.35;10.13;;;;;;;3.86;50.59;99363.53;3362724;29;20068;-70
2022/01/26 06:18:52;;;;;;;25.42;10.65;;;;;;;3.93;50.74;99371.63;3362427;29;20144;-71
2022/01/26 06:20:35;;;;;;;21.35;10.13;;;;;;;3.97;50.52;99375.59;3361610;29;20045;-70
2022/01/26 06:22:16;;;;;;;24.17;11.05;;;;;;;3.99;50.47;99367.53;3362449;29;20104;-72
2022/01/26 06:23:57;;;;;;;18.30;9.90;;;;;;;3.99;50.45;99371.00;3362680;29;20135;-70
2022/01/26 06:25:40;;;;;;;19.35;9.85;;;;;;;4.00;50.66;99369.16;3362551;29;20105;-70
2022/01/26 06:27:21;;;;;;;23.83;9.50;;;;;;;3.98;50.80;99365.88;3362523;29;20037;-69
2022/01/26 06:29:02;;;;;;;23.92;11.98;;;;;;;3.98;50.69;99366.72;3361600;29;20436;-70
2022/01/26 06:30:47;;;;;;;19.52;10.43;;;;;;;4.00;50.84;99375.28;3362301;29;20056;-70
2022/01/26 06:32:28;;;;;;;23.38;10.60;;;;;;;4.00;50.65;99369.16;3362093;29;20633;-69
2022/01/26 06:34:12;;;;;;;19.52;10.45;;;;;;;4.03;50.94;99379.41;3362350;29;20172;-69
2022/01/26 06:35:57;;;;;;;21.27;9.55;;;;;;;4.03;50.96;99368.88;3374209;29;20453;-70
2022/01/26 06:37:39;;;;;;;21.20;10.45;;;;;;;4.07;50.85;99368.38;3371206;29;20036;-70
2022/01/26 06:39:19;;;;;;;19.38;9.48;;;;;;;4.14;50.77;99371.19;3366810;29;20639;-69
2022/01/26 06:41:01;;;;;;;19.42;9.75;;;;;;;4.20;50.71;99373.19;3374276;29;20040;-70
2022/01/26 06:43:00;;;;;;;17.98;9.73;;;;;;;4.26;50.67;99377.84;3373846;29;20075;-69
2022/01/26 06:46:58;;;;;;;;;;;;;;;4.41;50.69;99371.91;3373108;29;20067;-68
2022/01/26 06:48:58;;;;;;;14.95;8.02;;;;;;;4.38;50.67;99376.50;3374114;29;19962;-70
2022/01/26 06:50:40;;;;;;;17.33;8.65;;;;;;;4.50;50.38;99381.50;3376852;29;20131;-70
2022/01/26 06:52:20;;;;;;;22.23;11.13;;;;;;;4.63;50.41;99381.00;3369383;29;20068;-71
2022/01/26 06:54:01;;;;;;;19.60;9.63;;;;;;;4.72;50.62;99380.84;3361594;29;20041;-71
2022/01/26 06:55:42;;;;;;;20.17;9.40;;;;;;;4.78;50.55;99377.56;3361880;29;20127;-69
2022/01/26 06:57:23;;;;;;;18.08;10.35;;;;;;;4.84;50.76;99389.25;3361724;29;20069;-69
2022/01/26 06:59:04;;;;;;;22.88;11.00;;;;;;;4.93;50.63;99387.44;3362462;29;20051;-69
2022/01/26 07:00:45;;;;;;;19.20;9.73;;;;;;;5.06;50.88;99382.50;3361752;29;20051;-70
2022/01/26 07:02:27;;;;;;;15.00;7.78;;;;;;;5.22;52.79;99390.41;3362053;29;20204;-68
2022/01/26 07:04:08;;;;;;;14.95;8.70;;;;;;;5.47;54.78;99387.69;3361782;29;20173;-70
2022/01/26 07:05:49;;;;;;;26.40;8.55;;;;;;;5.81;56.60;99384.81;3362084;29;20457;-70
2022/01/26 07:07:30;;;;;;;14.93;7.68;;;;;;;6.18;57.44;99388.63;3361855;29;20147;-69
2022/01/26 07:09:12;;;;;;;15.55;7.78;;;;;;;6.47;57.73;99390.59;3362393;29;20045;-70
2022/01/26 07:10:53;;;;;;;13.25;7.20;;;;;;;6.72;57.46;99382.50;3362620;29;20041;-72
2022/01/26 07:12:35;;;;;;;17.25;7.38;;;;;;;6.93;56.73;99385.28;3362405;29;20064;-70
2022/01/26 07:14:27;;;;;;;14.50;8.38;;;;;;;6.97;54.42;99385.78;3363031;29;20416;-70
2022/01/26 07:21:54;;;;;;;12.93;5.82;;;;;;;7.35;55.56;99389.22;3362508;29;20096;-71
2022/01/26 07:23:37;;;;;;;16.75;7.35;;;;;;;7.59;55.38;99384.66;3362046;29;20057;-69
2022/01/26 07:25:17;;;;;;;;;;;;;;;7.79;54.59;99377.78;3362768;29;20136;-69
2022/01/26 07:26:58;;;;;;;14.50;8.20;;;;;;;7.93;54.81;99383.28;3362957;29;19924;-70
2022/01/26 07:28:40;;;;;;;16.90;7.35;;;;;;;7.99;53.28;99386.00;3362906;29;20509;-72
2022/01/26 07:30:22;;;;;;;12.93;7.82;;;;;;;7.92;51.38;99382.44;3360034;29;20129;-70
2022/01/26 07:32:06;;;;;;;16.60;8.38;;;;;;;7.78;51.01;99380.66;3370585;29;20105;-69
2022/01/26 07:33:53;;;;;;;17.65;8.13;;;;;;;7.64;50.50;99391.09;3370869;29;20040;-70
2022/01/26 07:35:34;;;;;;;14.18;8.00;;;;;;;7.52;50.22;99383.75;3356232;29;20098;-69
2022/01/26 07:37:17;;;;;;;12.30;6.28;;;;;;;7.43;51.42;99391.81;3358003;29;20037;-70
2022/01/26 07:39:06;;;;;;;17.25;10.55;;;;;;;7.44;51.30;99392.63;3357409;29;20052;-71
2022/01/26 07:40:47;;;;;;;16.40;9.13;;;;;;;7.43;50.63;99399.75;3356422;29;20057;-69
2022/01/26 07:42:28;;;;;;;11.13;7.25;;;;;;;7.42;50.96;99399.94;3358581;29;20461;-71
2022/01/26 07:44:09;;;;;;;15.45;8.05;;;;;;;7.50;51.43;99399.03;3359114;29;20060;-69
2022/01/26 07:45:49;;;;;;;16.90;9.05;;;;;;;7.62;50.98;99395.75;3354751;29;20378;-71
2022/01/26 07:47:33;;;;;;;16.08;7.95;;;;;;;7.80;51.44;99394.56;3361630;29;20045;-70
2022/01/26 07:49:14;;;;;;;15.73;7.30;;;;;;;8.03;51.61;99399.75;3362768;29;20049;-69
2022/01/26 07:50:56;;;;;;;11.70;5.93;;;;;;;8.26;51.53;99405.75;3362183;29;20076;-69
2022/01/26 07:52:40;;;;;;;12.80;6.93;;;;;;;8.43;50.65;99400.22;3360749;29;20081;-70
2022/01/26 07:54:22;;;;;;;10.90;5.97;;;;;;;8.51;50.24;99398.28;3361186;29;20485;-69
2022/01/26 07:56:03;;;;;;;16.80;9.25;;;;;;;8.57;49.46;99402.03;3362082;29;20041;-69
2022/01/26 07:57:45;;;;;;;14.40;7.65;;;;;;;8.54;48.90;99410.34;3361806;29;20140;-69
2022/01/26 07:59:27;;;;;;;15.55;8.85;;;;;;;8.50;48.50;99411.75;3363356;29;20412;-69
2022/01/26 08:01:08;;;;;;;17.50;9.43;;;;;;;8.38;47.99;99414.03;3364163;29;20512;-69
2022/01/26 08:02:50;;;;;;;14.93;7.03;;;;;;;8.31;48.47;99407.81;3366314;29;20049;-68
2022/01/26 08:04:31;;;;;;;16.42;8.93;;;;;;;8.26;48.40;99404.91;3368436;29;20060;-69
2022/01/26 08:06:15;;;;;;;18.40;9.15;;;;;;;8.14;47.70;99406.41;3367265;29;20067;-68
2022/01/26 08:07:56;;;;;;;16.67;8.02;;;;;;;7.98;47.61;99399.47;3364615;29;20131;-68
2022/01/26 08:09:42;;;;;;;16.88;7.93;;;;;;;7.87;47.68;99400.75;3365267;29;20037;-70
2022/01/26 08:11:24;;;;;;;18.88;9.88;;;;;;;7.82;47.40;99411.94;3364637;29;20051;-68
2022/01/26 08:13:05;;;;;;;;;;;;;;;7.89;47.81;99403.22;3365151;29;20045;-67
2022/01/26 08:14:45;;;;;;;19.42;9.43;;;;;;;7.68;47.81;99406.63;3363848;29;20398;-69
2022/01/26 08:16:26;;;;;;;12.95;8.48;;;;;;;7.53;47.70;99403.97;3363453;29;20048;-69
2022/01/26 08:18:07;;;;;;;16.33;9.65;;;;;;;7.44;47.58;99397.94;3364966;29;20068;-69
2022/01/26 08:19:51;;;;;;;17.95;9.25;;;;;;;7.45;47.64;99409.34;3364735;29;20055;-70
2022/01/26 08:21:32;;;;;;;20.75;9.93;;;;;;;7.47;47.29;99410.00;3364604;29;20049;-69
2022/01/26 08:23:13;;;;;;;17.10;9.70;;;;;;;7.42;47.50;99408.69;3370051;29;20068;-70
2022/01/26 08:24:54;;;;;;;18.42;10.48;;;;;;;7.37;47.57;99404.94;3366274;29;20052;-70
2022/01/26 08:26:40;;;;;;;15.30;8.75;;;;;;;7.35;47.94;99417.56;3362273;29;20037;-70
2022/01/26 08:28:27;;;;;;;18.45;8.38;;;;;;;7.47;50.19;99407.34;3364461;29;20997;-70
2022/01/26 08:30:12;;;;;;;20.50;8.32;;;;;;;7.66;51.96;99414.75;3364955;29;20087;-69
2022/01/26 08:31:53;;;;;;;17.75;7.95;;;;;;;7.88;52.81;99401.59;3364746;29;20049;-69
2022/01/26 08:33:34;;;;;;;16.85;8.88;;;;;;;8.03;52.59;99410.38;3364960;29;20423;-69
2022/01/26 08:35:14;;;;;;;17.43;9.73;;;;;;;8.08;50.70;99413.28;3364762;29;20440;-69
2022/01/26 08:36:55;;;;;;;19.98;8.75;;;;;;;8.05;50.02;99414.47;3364941;29;20289;-69
2022/01/26 08:38:37;;;;;;;23.77;9.82;;;;;;;7.98;49.83;99423.38;3363955;29;20489;-68
2022/01/26 08:40:18;;;;;;;22.55;9.90;;;;;;;7.88;49.42;99422.81;3364368;29;20522;-69
2022/01/26 08:42:00;;;;;;;17.17;8.65;;;;;;;7.87;49.67;99419.31;3364481;29;20052;-68
2022/01/26 08:43:44;;;;;;;17.30;8.80;;;;;;;7.85;49.48;99422.19;3361186;29;20446;-69
2022/01/26 08:45:26;;;;;;;15.75;8.75;;;;;;;7.85;50.25;99421.34;3364473;29;20049;-69
2022/01/26 08:47:07;;;;;;;18.70;7.30;;;;;;;7.94;54.21;99422.91;3352465;29;20041;-69
2022/01/26 08:48:48;;;;;;;22.23;9.38;;;;;;;7.99;53.11;99420.50;3354751;29;20453;-68
2022/01/26 08:50:29;;;;;;;18.38;9.50;;;;;;;7.95;51.43;99426.38;3363928;29;20497;-68
2022/01/26 08:52:10;;;;;;;17.15;8.30;;;;;;;7.89;50.72;99430.56;3362381;29;20100;-69
2022/01/26 08:53:51;;;;;;;18.52;9.38;;;;;;;7.88;50.48;99428.94;3363518;29;20049;-69
2022/01/26 08:55:33;;;;;;;16.90;9.63;;;;;;;7.86;50.42;99429.13;3364209;29;20080;-69
2022/01/26 08:57:14;;;;;;;16.65;9.48;;;;;;;7.79;49.85;99424.72;3363493;29;20049;-72
2022/01/26 08:58:55;;;;;;;15.40;8.90;;;;;;;7.69;50.09;99435.59;3359663;29;20140;-71
2022/01/26 09:00:37;;;;;;;16.55;9.05;;;;;;;7.58;50.01;99438.72;3359114;29;20069;-70
2022/01/26 09:02:18;;;;;;;18.98;9.00;;;;;;;7.48;49.93;99438.16;3363113;29;20041;-71
2022/01/26 09:03:59;;;;;;;19.00;8.70;;;;;;;7.35;49.86;99428.97;3363349;29;20100;-71
2022/01/26 09:05:39;;;;;;;21.58;6.97;;;;;;;7.34;51.93;99437.94;3364100;29;20131;-72
2022/01/26 09:07:21;;;;;;;14.88;7.97;;;;;;;7.38;51.82;99443.69;3362557;29;20072;-71
2022/01/26 09:09:06;;;;;;;15.70;8.70;;;;;;;7.41;51.14;99452.13;3356262;29;20502;-71
2022/01/26 09:10:47;;;;;;;13.63;8.35;;;;;;;7.41;50.67;99449.47;3356555;29;20108;-70
2022/01/26 09:12:30;;;;;;;16.48;7.90;;;;;;;7.40;50.26;99453.13;3362256;29;20092;-72
2022/01/26 09:14:17;;;;;;;16.52;7.38;;;;;;;7.37;50.15;99448.19;3361575;29;20041;-71
2022/01/26 09:15:58;;;;;;;13.80;7.60;;;;;;;7.38;49.85;99449.84;3363077;29;20139;-70
2022/01/26 09:17:39;;;;;;;13.48;7.20;;;;;;;7.42;49.95;99448.47;3355904;29;20060;-70
2022/01/26 09:21:08;;;;;;;12.95;5.57;;;;;;;7.64;51.67;99448.59;3361121;29;20151;-70
2022/01/26 09:22:48;;;;;;;11.63;6.18;;;;;;;7.81;51.82;99449.25;3353036;29;20045;-71
2022/01/26 09:24:31;;;;;;;11.98;6.75;;;;;;;7.89;50.78;99443.03;3354197;29;20053;-71
2022/01/26 09:26:11;;;;;;;;;;;;;;;8.02;50.27;99443.19;3357827;29;20494;-70
2022/01/26 09:27:52;;;;;;;9.82;5.20;;;;;;;8.09;51.41;99449.44;3358296;29;20019;-72